Time,TemperatureF,DewpointF,PressureIn,WindDirection,WindDirectionDegrees,WindSpeedMPH,WindSpeedGustMPH,Humidity,HourlyPrecipIn,Conditions,Clouds,dailyrainin,SoftwareType,DateUTC
2013-01-09 00:02:00,26.0,25.0,30.23,WSW,237,15.0,23.0,95,0.00,,,0.00,,2013-01-09 07:02:00,
2013-01-09 00:11:00,26.0,25.0,30.23,WSW,237,15.0,23.0,95,0.00,,,0.00,,2013-01-09 07:11:00,
2013-01-09 00:22:00,26.0,25.0,30.23,WSW,240,15.0,22.0,95,0.00,,,0.00,,2013-01-09 07:22:00,
2013-01-09 00:32:00,26.0,25.0,30.23,SW,220,15.0,21.0,95,0.00,,,0.00,,2013-01-09 07:32:00,
2013-01-09 00:42:00,26.0,25.0,30.23,SW,220,15.0,21.0,95,0.00,,,0.00,,2013-01-09 07:42:00,
2013-01-09 00:52:00,26.0,25.0,30.23,WSW,237,18.0,25.0,95,0.00,,,0.00,,2013-01-09 07:52:00,
2013-01-09 01:01:00,25.0,24.0,30.22,SW,221,18.0,25.0,95,0.00,,,0.00,,2013-01-09 08:01:00,
2013-01-09 01:11:00,25.0,24.0,30.22,SW,221,18.0,25.0,95,0.00,,,0.00,,2013-01-09 08:11:00,
2013-01-09 01:22:00,25.0,24.0,30.22,SW,230,17.0,23.0,95,0.00,,,0.00,,2013-01-09 08:22:00,
2013-01-09 01:32:00,25.0,24.0,30.22,SW,217,21.0,27.0,95,0.00,,,0.00,,2013-01-09 08:32:00,
2013-01-09 01:42:00,25.0,24.0,30.22,SW,217,21.0,27.0,95,0.00,,,0.00,,2013-01-09 08:42:00,
2013-01-09 01:53:00,26.0,25.0,30.22,SW,226,19.0,28.0,94,0.00,,,0.00,,2013-01-09 08:53:00,
2013-01-09 02:02:00,26.0,25.0,30.22,SW,223,18.0,26.0,94,0.00,,,0.00,,2013-01-09 09:02:00,
2013-01-09 02:11:00,26.0,25.0,30.22,SW,223,18.0,26.0,94,0.00,,,0.00,,2013-01-09 09:11:00,
2013-01-09 02:22:00,26.0,24.0,30.22,SW,231,19.0,27.0,93,0.00,,,0.00,,2013-01-09 09:22:00,
2013-01-09 02:32:00,26.0,24.0,30.23,WSW,242,18.0,24.0,92,0.00,,,0.00,,2013-01-09 09:32:00,
2013-01-09 02:42:00,26.0,24.0,30.23,WSW,242,18.0,24.0,92,0.00,,,0.00,,2013-01-09 09:42:00,
2013-01-09 02:53:00,26.0,24.0,30.23,WSW,239,17.0,24.0,92,0.00,,,0.00,,2013-01-09 09:53:00,
2013-01-09 03:01:00,26.0,24.0,30.23,WSW,252,18.0,25.0,92,0.00,,,0.00,,2013-01-09 10:01:00,
2013-01-09 03:11:00,26.0,24.0,30.23,WSW,252,18.0,25.0,92,0.00,,,0.00,,2013-01-09 10:11:00,
2013-01-09 03:21:00,27.0,25.0,30.23,WSW,248,15.0,24.0,91,0.00,,,0.00,,2013-01-09 10:21:00,
2013-01-09 03:22:00,27.0,25.0,30.22,SW,235,19.0,27.0,92,0.00,,,0.00,,2013-01-09 10:22:00,
2013-01-09 03:32:00,27.0,25.0,30.23,WSW,242,19.0,23.0,91,0.00,,,0.00,,2013-01-09 10:32:00,
2013-01-09 03:42:00,27.0,25.0,30.23,WSW,242,19.0,23.0,91,0.00,,,0.00,,2013-01-09 10:42:00,
2013-01-09 03:52:00,27.0,25.0,30.23,WSW,248,15.0,24.0,91,0.00,,,0.00,,2013-01-09 10:52:00,
2013-01-09 04:02:00,27.0,25.0,30.23,WSW,248,15.0,24.0,91,0.00,,,0.00,,2013-01-09 11:02:00,
2013-01-09 04:11:00,27.0,25.0,30.23,WSW,248,15.0,24.0,91,0.00,,,0.00,,2013-01-09 11:11:00,
2013-01-09 10:53:00,30.0,25.0,30.07,WSW,243,22.0,29.0,82,0.00,,,0.00,,2013-01-09 17:53:00,
2013-01-09 11:03:00,31.0,26.0,30.06,WSW,248,19.0,30.0,82,0.00,,,0.00,,2013-01-09 18:03:00,
2013-01-09 11:12:00,31.0,26.0,30.06,WSW,248,19.0,30.0,82,0.00,,,0.00,,2013-01-09 18:12:00,
2013-01-09 11:23:00,31.0,26.0,30.05,WSW,247,21.0,28.0,81,0.00,,,0.00,,2013-01-09 18:23:00,
2013-01-09 11:32:00,32.0,26.0,30.04,WSW,246,17.0,31.0,79,0.00,,,0.00,,2013-01-09 18:32:00,
2013-01-09 11:42:00,32.0,26.0,30.04,WSW,246,17.0,31.0,79,0.00,,,0.00,,2013-01-09 18:42:00,
2013-01-09 11:53:00,32.0,26.0,30.03,WSW,240,19.0,24.0,79,0.00,,,0.00,,2013-01-09 18:53:00,
2013-01-09 12:02:00,32.0,26.0,30.02,WSW,237,19.0,29.0,79,0.00,,,0.00,,2013-01-09 19:02:00,
2013-01-09 12:12:00,32.0,26.0,30.02,WSW,237,19.0,29.0,79,0.00,,,0.00,,2013-01-09 19:12:00,
2013-01-09 12:22:00,31.0,25.0,30.01,WSW,252,23.0,32.0,79,0.00,,,0.00,,2013-01-09 19:22:00,
2013-01-09 12:32:00,31.0,25.0,29.99,WSW,241,23.0,35.0,78,0.00,,,0.00,,2013-01-09 19:32:00,
2013-01-09 12:42:00,31.0,25.0,29.99,WSW,241,23.0,35.0,78,0.00,,,0.00,,2013-01-09 19:42:00,
2013-01-09 12:52:00,31.0,25.0,29.98,WSW,240,21.0,31.0,78,0.00,,,0.00,,2013-01-09 19:52:00,
2013-01-09 13:01:00,32.0,26.0,29.98,SW,229,21.0,29.0,78,0.00,,,0.00,,2013-01-09 20:01:00,
2013-01-09 13:11:00,32.0,26.0,29.98,SW,229,21.0,29.0,78,0.00,,,0.00,,2013-01-09 20:11:00,
2013-01-09 13:22:00,31.0,25.0,29.97,WSW,240,19.0,27.0,78,0.00,,,0.00,,2013-01-09 20:22:00,
2013-01-09 13:32:00,31.0,25.0,29.96,SW,222,18.0,34.0,78,0.00,,,0.00,,2013-01-09 20:32:00,
2013-01-09 13:42:00,31.0,25.0,29.96,SW,222,18.0,34.0,78,0.00,,,0.00,,2013-01-09 20:42:00,
2013-01-09 13:53:00,30.0,24.0,29.96,SW,229,15.0,23.0,79,0.00,,,0.00,,2013-01-09 20:53:00,
2013-01-09 14:02:00,31.0,25.0,29.95,WSW,242,18.0,28.0,78,0.00,,,0.00,,2013-01-09 21:02:00,
2013-01-09 14:12:00,31.0,25.0,29.95,WSW,242,18.0,28.0,78,0.00,,,0.00,,2013-01-09 21:12:00,
2013-01-09 14:22:00,30.0,24.0,29.94,SW,232,19.0,30.0,79,0.00,,,0.00,,2013-01-09 21:22:00,
2013-01-09 14:32:00,30.0,25.0,29.94,SW,236,19.0,29.0,81,0.00,,,0.00,,2013-01-09 21:32:00,
2013-01-09 14:42:00,30.0,25.0,29.94,SW,236,19.0,29.0,81,0.00,,,0.00,,2013-01-09 21:42:00,
2013-01-09 14:53:00,30.0,24.0,29.94,WSW,240,22.0,30.0,79,0.00,,,0.00,,2013-01-09 21:53:00,
2013-01-09 15:02:00,30.0,24.0,29.93,SW,235,20.0,30.0,79,0.00,,,0.00,,2013-01-09 22:02:00,
2013-01-09 15:12:00,30.0,24.0,29.93,SW,235,20.0,30.0,79,0.00,,,0.00,,2013-01-09 22:12:00,
2013-01-09 15:22:00,31.0,24.0,29.93,WSW,237,19.0,29.0,76,0.00,,,0.00,,2013-01-09 22:22:00,
2013-01-09 15:32:00,31.0,24.0,29.93,SW,223,17.0,25.0,76,0.00,,,0.00,,2013-01-09 22:32:00,
2013-01-09 15:42:00,31.0,24.0,29.93,SW,223,17.0,25.0,76,0.00,,,0.00,,2013-01-09 22:42:00,
2013-01-09 15:52:00,31.0,24.0,29.93,WSW,249,18.0,26.0,76,0.00,,,0.00,,2013-01-09 22:52:00,
2013-01-09 16:02:00,31.0,25.0,29.92,WSW,245,17.0,23.0,77,0.00,,,0.00,,2013-01-09 23:02:00,
2013-01-09 16:12:00,31.0,25.0,29.92,WSW,245,17.0,23.0,77,0.00,,,0.00,,2013-01-09 23:12:00,
2013-01-09 16:22:00,31.0,24.0,29.92,SW,232,18.0,24.0,76,0.00,,,0.00,,2013-01-09 23:22:00,
2013-01-09 16:32:00,31.0,24.0,29.91,WSW,238,19.0,27.0,76,0.00,,,0.00,,2013-01-09 23:32:00,
2013-01-09 16:42:00,31.0,24.0,29.91,WSW,238,19.0,27.0,76,0.00,,,0.00,,2013-01-09 23:42:00,
2013-01-09 16:53:00,31.0,24.0,29.90,WSW,243,20.0,28.0,76,0.00,,,0.00,,2013-01-09 23:53:00,
2013-01-09 17:02:00,32.0,24.0,29.90,WSW,244,21.0,29.0,72,0.00,,,0.00,,2013-01-10 00:02:00,
2013-01-09 17:12:00,32.0,24.0,29.90,WSW,244,21.0,29.0,72,0.00,,,0.00,,2013-01-10 00:12:00,
2013-01-09 17:22:00,32.0,24.0,29.88,WSW,239,20.0,27.0,72,0.00,,,0.00,,2013-01-10 00:22:00,
2013-01-09 17:32:00,32.0,24.0,29.88,SW,229,21.0,28.0,71,0.00,,,0.00,,2013-01-10 00:32:00,
2013-01-09 17:42:00,32.0,24.0,29.88,SW,229,21.0,28.0,71,0.00,,,0.00,,2013-01-10 00:42:00,
2013-01-09 17:53:00,33.0,23.0,29.88,WSW,248,18.0,28.0,67,0.00,,,0.00,,2013-01-10 00:53:00,
2013-01-09 18:02:00,33.0,23.0,29.88,WSW,246,18.0,28.0,67,0.00,,,0.00,,2013-01-10 01:02:00,
2013-01-09 18:11:00,33.0,23.0,29.88,WSW,246,18.0,28.0,67,0.00,,,0.00,,2013-01-10 01:11:00,
2013-01-09 18:22:00,33.0,23.0,29.87,WSW,243,15.0,24.0,66,0.00,,,0.00,,2013-01-10 01:22:00,
2013-01-09 18:32:00,33.0,23.0,29.85,West,261,16.0,23.0,65,0.00,,,0.00,,2013-01-10 01:32:00,
2013-01-09 18:42:00,33.0,23.0,29.85,West,261,16.0,23.0,65,0.00,,,0.00,,2013-01-10 01:42:00,
2013-01-09 18:53:00,34.0,22.0,29.84,SW,220,21.0,27.0,60,0.00,,,0.00,,2013-01-10 01:53:00,
2013-01-09 19:02:00,33.0,22.0,29.83,WSW,256,18.0,25.0,63,0.00,,,0.00,,2013-01-10 02:02:00,
2013-01-09 19:12:00,33.0,22.0,29.83,WSW,256,18.0,25.0,63,0.00,,,0.00,,2013-01-10 02:12:00,
2013-01-09 19:22:00,34.0,22.0,29.81,WSW,238,21.0,28.0,62,0.00,,,0.00,,2013-01-10 02:22:00,
2013-01-09 19:32:00,34.0,22.0,29.83,West,263,14.0,32.0,62,0.00,,,0.00,,2013-01-10 02:32:00,
2013-01-09 19:42:00,34.0,22.0,29.83,West,263,14.0,32.0,62,0.00,,,0.00,,2013-01-10 02:42:00,
2013-01-09 19:52:00,34.0,22.0,29.83,West,263,14.0,32.0,62,0.00,,,0.00,,2013-01-10 02:52:00,
2013-01-09 20:02:00,34.0,21.0,29.80,WSW,254,18.0,26.0,59,0.00,,,0.00,,2013-01-10 03:02:00,
2013-01-09 20:11:00,34.0,21.0,29.80,WSW,254,18.0,26.0,59,0.00,,,0.00,,2013-01-10 03:11:00,
2013-01-09 20:22:00,34.0,21.0,29.79,WSW,248,14.0,25.0,59,0.00,,,0.00,,2013-01-10 03:22:00,
2013-01-09 20:32:00,34.0,21.0,29.79,WSW,248,11.0,21.0,58,0.00,,,0.00,,2013-01-10 03:32:00,
2013-01-09 20:42:00,34.0,21.0,29.79,WSW,248,11.0,21.0,58,0.00,,,0.00,,2013-01-10 03:42:00,
2013-01-09 20:52:00,34.0,21.0,29.77,WSW,237,11.0,22.0,59,0.00,,,0.00,,2013-01-10 03:52:00,
2013-01-09 21:02:00,34.0,20.0,29.76,SW,227,17.0,27.0,57,0.00,,,0.00,,2013-01-10 04:02:00,
2013-01-09 21:11:00,34.0,20.0,29.76,SW,227,17.0,27.0,57,0.00,,,0.00,,2013-01-10 04:11:00,
2013-01-09 21:22:00,34.0,20.0,29.76,SW,231,15.0,21.0,57,0.00,,,0.00,,2013-01-10 04:22:00,
2013-01-09 21:32:00,34.0,21.0,29.75,WSW,247,11.0,18.0,58,0.00,,,0.00,,2013-01-10 04:32:00,
2013-01-09 21:42:00,34.0,21.0,29.75,WSW,247,11.0,18.0,58,0.00,,,0.00,,2013-01-10 04:42:00,
2013-01-09 21:52:00,35.0,20.0,29.73,WSW,248,12.0,22.0,55,0.00,,,0.00,,2013-01-10 04:52:00,
2013-01-09 22:12:00,35.0,20.0,29.72,SW,236,12.0,26.0,55,0.00,,,0.00,,2013-01-10 05:12:00,
2013-01-09 22:22:00,34.0,20.0,29.72,SSW,200,8.0,23.0,57,0.00,,,0.00,,2013-01-10 05:22:00,
2013-01-09 22:32:00,36.0,21.0,29.72,West,261,18.0,30.0,54,0.00,,,0.00,,2013-01-10 05:32:00,
2013-01-09 22:42:00,36.0,21.0,29.72,West,261,18.0,30.0,54,0.00,,,0.00,,2013-01-10 05:42:00,
2013-01-09 22:52:00,36.0,21.0,29.71,SW,236,15.0,25.0,54,0.00,,,0.00,,2013-01-10 05:52:00,
2013-01-09 23:02:00,37.0,21.0,29.70,SW,219,17.0,25.0,51,0.00,,,0.00,,2013-01-10 06:02:00,
2013-01-09 23:11:00,37.0,21.0,29.70,SW,219,17.0,25.0,51,0.00,,,0.00,,2013-01-10 06:11:00,
2013-01-09 23:22:00,36.0,21.0,29.70,SSW,202,13.0,23.0,54,0.00,,,0.00,,2013-01-10 06:22:00,
2013-01-09 23:32:00,35.0,21.0,29.71,WSW,248,11.0,24.0,56,0.00,,,0.00,,2013-01-10 06:32:00,
2013-01-09 23:42:00,35.0,21.0,29.71,WSW,248,11.0,24.0,56,0.00,,,0.00,,2013-01-10 06:42:00,
2013-01-09 23:52:00,35.0,21.0,29.70,WSW,239,10.0,18.0,56,0.00,,,0.00,,2013-01-10 06:52:00,